createdAt,value
2019-03-22T00:00:07.355Z,98145.73
2019-03-22T00:05:01.953Z,98147.81
2019-03-22T00:09:56.551Z,98141.25
2019-03-22T00:14:51.180Z,98140.34
2019-03-22T00:19:45.760Z,98143.89
2019-03-22T00:24:40.352Z,98150.59
2019-03-22T00:29:34.918Z,98145.48
2019-03-22T00:34:29.535Z,98146.69
2019-03-22T00:39:24.099Z,98153.62
2019-03-22T00:44:18.702Z,98144.18
2019-03-22T00:49:13.289Z,98138.45
2019-03-22T00:54:07.870Z,98134.63
2019-03-22T00:59:02.433Z,98143.12
2019-03-22T01:03:57.030Z,98148.41
2019-03-22T01:08:51.617Z,98146.41
2019-03-22T01:13:46.257Z,98147.77
2019-03-22T01:18:40.901Z,98145.34
2019-03-22T01:23:35.496Z,98148.52
2019-03-22T01:28:30.071Z,98140.73
2019-03-22T01:33:24.682Z,98137.72
2019-03-22T01:38:19.254Z,98141.05
2019-03-22T01:43:13.837Z,98139.91
2019-03-22T01:48:08.479Z,98143.23
2019-03-22T01:53:03.226Z,98129.12
2019-03-22T01:57:57.806Z,98134.73
2019-03-22T02:02:52.426Z,98142.59
2019-03-22T02:07:47.070Z,98138.81
2019-03-22T02:12:41.795Z,98147.12
2019-03-22T02:17:36.398Z,98144.72
2019-03-22T02:22:30.972Z,98152.34
2019-03-22T02:27:25.556Z,98153.98
2019-03-22T02:32:20.198Z,98153.80
2019-03-22T02:37:14.769Z,98152.51
2019-03-22T02:42:09.356Z,98148.70
2019-03-22T02:47:04.005Z,98149.62
2019-03-22T02:51:58.675Z,98152.97
2019-03-22T02:56:53.274Z,98149.55
2019-03-22T03:01:47.926Z,98140.63
2019-03-22T03:06:42.575Z,98153.39
2019-03-22T03:11:37.176Z,98153.46
2019-03-22T03:16:31.747Z,98155.23
2019-03-22T03:21:26.351Z,98158.72
2019-03-22T03:26:20.938Z,98155.22
2019-03-22T03:31:15.555Z,98157.61
2019-03-22T03:36:10.134Z,98165.91
2019-03-22T03:41:04.801Z,98160.67
2019-03-22T03:45:59.456Z,98161.56
2019-03-22T03:50:54.068Z,98162.33
2019-03-22T03:55:48.652Z,98160.61
2019-03-22T04:00:43.339Z,98164.83
2019-03-22T04:05:37.970Z,98167.56
2019-03-22T04:10:32.625Z,98165.92
2019-03-22T04:15:27.193Z,98170.22
2019-03-22T04:20:21.810Z,98176.09
2019-03-22T04:25:16.556Z,98179.63
2019-03-22T04:30:11.687Z,98191.26
2019-03-22T04:35:08.481Z,98188.08
2019-03-22T04:40:03.267Z,98195.98
2019-03-22T04:44:57.838Z,98198.36
2019-03-22T04:49:55.666Z,98206.11
2019-03-22T04:54:54.101Z,98214.27
2019-03-22T04:59:50.937Z,98220.52
2019-03-22T05:04:48.926Z,98222.34
2019-03-22T05:09:45.082Z,98220.11
2019-03-22T05:14:43.148Z,98222.16
2019-03-22T05:19:42.397Z,98233.84
2019-03-22T05:24:39.846Z,98229.45
2019-03-22T05:29:39.003Z,98228.31
2019-03-22T05:34:33.675Z,98235.73
2019-03-22T05:39:28.346Z,98245.92
2019-03-22T05:44:22.934Z,98235.17
2019-03-22T05:49:17.548Z,98243.09
2019-03-22T05:54:12.110Z,98238.86
2019-03-22T05:59:06.778Z,98235.63
2019-03-22T06:04:01.396Z,98243.48
2019-03-22T06:08:55.999Z,98232.70
2019-03-22T06:13:50.654Z,98222.63
2019-03-22T06:18:45.389Z,98230.17
2019-03-22T06:23:39.974Z,98220.67
2019-03-22T06:28:34.591Z,98223.29
2019-03-22T06:33:39.273Z,98227.00
2019-03-22T06:38:34.048Z,98221.12
2019-03-22T06:43:28.799Z,98222.25
2019-03-22T06:48:23.407Z,98220.23
2019-03-22T06:53:19.758Z,98237.39
2019-03-22T06:58:14.356Z,98242.08
2019-03-22T07:03:09.451Z,98247.50
2019-03-22T07:08:04.124Z,98249.11
2019-03-22T07:12:58.722Z,98243.84
2019-03-22T07:17:53.333Z,98242.86
2019-03-22T07:22:47.953Z,98242.66
2019-03-22T07:27:44.237Z,98244.23
2019-03-22T07:32:38.828Z,98243.23
2019-03-22T07:37:33.430Z,98237.86
2019-03-22T07:42:29.672Z,98250.59
2019-03-22T07:47:25.767Z,98242.20
2019-03-22T07:52:20.403Z,98232.36
2019-03-22T07:57:15.032Z,98233.59
2019-03-22T08:02:09.712Z,98226.41
2019-03-22T08:07:04.427Z,98225.34
2019-03-22T08:11:59.076Z,98228.94
2019-03-22T08:16:53.814Z,98230.47
2019-03-22T08:21:48.541Z,98230.52
2019-03-22T08:26:43.241Z,98225.70
2019-03-22T08:31:38.967Z,98227.80
2019-03-22T08:36:33.681Z,98221.77
2019-03-22T08:41:28.589Z,98229.98
2019-03-22T08:46:23.301Z,98221.96
2019-03-22T08:51:29.857Z,98225.84
2019-03-22T08:56:24.717Z,98217.77
2019-03-22T09:01:29.509Z,98222.97
2019-03-22T09:06:32.509Z,98207.72
2019-03-22T09:11:27.945Z,98214.28
2019-03-22T09:16:23.554Z,98208.46
2019-03-22T09:21:20.348Z,98212.96
2019-03-22T09:26:15.061Z,98216.56
2019-03-22T09:31:10.621Z,98198.59
2019-03-22T09:36:06.342Z,98195.84
2019-03-22T09:41:02.493Z,98180.33
2019-03-22T09:45:57.249Z,98187.30
2019-03-22T09:50:53.828Z,98180.41
2019-03-22T09:55:48.579Z,98181.64
2019-03-22T10:00:44.300Z,98178.91
2019-03-22T10:05:39.955Z,98175.50
2019-03-22T10:10:34.609Z,98163.06
2019-03-22T10:15:29.464Z,98157.50
2019-03-22T10:20:24.272Z,98153.62
2019-03-22T10:25:18.876Z,98150.41
2019-03-22T10:30:16.855Z,98145.27
2019-03-22T10:35:25.040Z,98146.56
2019-03-22T10:40:08.844Z,98140.27
2019-03-22T10:45:04.715Z,98136.28
2019-03-22T10:49:59.490Z,98132.65
2019-03-22T10:54:54.596Z,98119.77
2019-03-22T10:59:49.360Z,98118.30
2019-03-22T11:04:44.236Z,98120.63
2019-03-22T11:09:38.873Z,98108.58
2019-03-22T11:14:33.523Z,98103.11
2019-03-22T11:19:28.224Z,98100.27
2019-03-22T11:24:23.627Z,98097.36
2019-03-22T11:29:18.290Z,98093.61
2019-03-22T11:34:12.927Z,98087.37
2019-03-22T11:39:15.859Z,98090.14
2019-03-22T11:44:09.017Z,98087.03
2019-03-22T11:49:03.798Z,98079.53
2019-03-22T11:53:58.448Z,98076.88
2019-03-22T11:58:53.050Z,98071.31
2019-03-22T12:09:10.930Z,98066.80
2019-03-22T12:14:06.687Z,98058.72
2019-03-22T12:19:01.423Z,98048.12
2019-03-22T12:23:56.378Z,98030.91
2019-03-22T12:28:51.079Z,98037.33
2019-03-22T12:33:45.834Z,98031.53
2019-03-22T12:38:45.064Z,98021.95
2019-03-22T12:43:46.749Z,98022.86
2019-03-22T12:48:44.044Z,98029.05
2019-03-22T12:53:42.321Z,98025.22
2019-03-22T12:58:37.281Z,98022.73
2019-03-22T13:03:32.347Z,98023.81
2019-03-22T13:08:28.103Z,98025.44
2019-03-22T13:13:22.739Z,98027.47
2019-03-22T13:18:17.377Z,98020.41
2019-03-22T13:23:12.151Z,98022.76
2019-03-22T13:28:06.836Z,98007.50
2019-03-22T13:33:01.545Z,98020.16
2019-03-22T13:37:56.197Z,98010.44
2019-03-22T13:42:50.785Z,98000.53
2019-03-22T13:47:45.518Z,98002.88
2019-03-22T13:52:40.325Z,97997.66
2019-03-22T13:57:38.795Z,98000.11
2019-03-22T14:02:33.570Z,97993.28
2019-03-22T14:07:28.234Z,97984.97
2019-03-22T14:12:22.860Z,97986.88
2019-03-22T14:17:17.754Z,97984.97
2019-03-22T14:22:12.396Z,97986.89
2019-03-22T14:27:07.110Z,97982.50
2019-03-22T14:32:01.725Z,97984.03
2019-03-22T14:36:56.461Z,97968.81
2019-03-22T14:41:51.111Z,97976.11
2019-03-22T14:46:45.811Z,97968.21
2019-03-22T14:51:40.462Z,97949.72
2019-03-22T14:56:35.188Z,97955.58
2019-03-22T15:01:29.855Z,97959.73
2019-03-22T15:06:24.505Z,97956.59
2019-03-22T15:11:19.305Z,97948.38
2019-03-22T15:16:22.828Z,97955.17
2019-03-22T15:21:32.279Z,97952.11
2019-03-22T15:26:34.401Z,97956.33
2019-03-22T15:31:28.970Z,97944.80
2019-03-22T15:36:40.348Z,97949.84
2019-03-22T15:41:35.287Z,97942.63
2019-03-22T15:46:30.023Z,97940.28
2019-03-22T15:51:24.632Z,97941.42
2019-03-22T15:56:19.260Z,97926.63
2019-03-22T16:01:13.874Z,97925.69
2019-03-22T16:06:08.517Z,97922.03
2019-03-22T16:11:03.193Z,97925.73
2019-03-22T16:15:57.810Z,97919.97
2019-03-22T16:20:59.871Z,97920.56
2019-03-22T16:25:48.811Z,97920.13
2019-03-22T16:30:43.563Z,97923.36
2019-03-22T16:35:38.188Z,97921.89
2019-03-22T16:40:32.807Z,97923.49
2019-03-22T16:45:37.539Z,97922.33
2019-03-22T16:50:32.201Z,97917.12
2019-03-22T16:55:26.831Z,97915.95
2019-03-22T17:00:21.918Z,97912.84
2019-03-22T17:05:16.664Z,97911.23
2019-03-22T17:10:11.760Z,97913.87
2019-03-22T17:15:08.296Z,97918.89
2019-03-22T17:20:02.981Z,97918.90
2019-03-22T17:24:58.399Z,97918.02
2019-03-22T17:29:53.270Z,97931.84
2019-03-22T17:34:47.879Z,97933.70
2019-03-22T17:39:42.511Z,97925.68
2019-03-22T17:44:37.171Z,97924.38
2019-03-22T17:49:31.794Z,97924.19
2019-03-22T17:54:26.400Z,97926.52
2019-03-22T17:59:21.010Z,97928.92
2019-03-22T18:04:23.849Z,97925.20
2019-03-22T18:09:11.943Z,97933.75
2019-03-22T18:14:06.609Z,97939.77
2019-03-22T18:19:01.238Z,97929.95
2019-03-22T18:23:55.906Z,97930.86
2019-03-22T18:28:50.524Z,97936.37
2019-03-22T18:33:45.146Z,97938.55
2019-03-22T18:38:39.765Z,97944.06
2019-03-22T18:43:34.370Z,97941.10
2019-03-22T18:48:29.059Z,97940.37
2019-03-22T18:53:23.692Z,97951.06
2019-03-22T18:58:18.308Z,97944.75
2019-03-22T19:03:12.974Z,97940.03
2019-03-22T19:08:07.583Z,97944.07
2019-03-22T19:13:02.225Z,97942.52
2019-03-22T19:17:56.856Z,97939.81
2019-03-22T19:22:51.458Z,97942.91
2019-03-22T19:27:46.071Z,97950.72
2019-03-22T19:32:40.747Z,97948.53
2019-03-22T19:37:35.428Z,97944.62
2019-03-22T19:42:30.025Z,97949.94
2019-03-22T19:47:24.631Z,97955.85
2019-03-22T19:52:19.260Z,97951.05
2019-03-22T19:57:13.877Z,97951.75
2019-03-22T20:02:08.464Z,97954.91
2019-03-22T20:07:03.075Z,97953.84
2019-03-22T20:11:57.682Z,97955.73
2019-03-22T20:16:52.360Z,97967.55
2019-03-22T20:21:46.952Z,97969.52
2019-03-22T20:26:41.569Z,97975.07
2019-03-22T20:31:36.164Z,97970.72
2019-03-22T20:36:30.788Z,97981.87
2019-03-22T20:41:25.379Z,97985.03
2019-03-22T20:46:20.851Z,97988.92
2019-03-22T20:51:15.472Z,97987.52
2019-03-22T20:56:10.073Z,97989.34
2019-03-22T21:01:04.661Z,97987.19
2019-03-22T21:05:59.277Z,97985.00
2019-03-22T21:10:53.876Z,97980.70
2019-03-22T21:15:48.552Z,97980.48
2019-03-22T21:20:43.142Z,97980.56
2019-03-22T21:25:37.758Z,97976.19
2019-03-22T21:30:32.345Z,97970.31
2019-03-22T21:35:36.666Z,97980.14
2019-03-22T21:40:23.260Z,97975.91
2019-03-22T21:45:17.933Z,97970.80
2019-03-22T21:50:12.685Z,97969.24
2019-03-22T21:55:09.836Z,97974.55
2019-03-22T22:00:12.880Z,97970.81
2019-03-22T22:05:08.777Z,97975.25
2019-03-22T22:10:04.732Z,97977.20
2019-03-22T22:14:59.339Z,97975.13
2019-03-22T22:19:53.937Z,97982.30
2019-03-22T22:24:48.542Z,97976.30
2019-03-22T22:29:43.138Z,97980.39
2019-03-22T22:34:37.754Z,97981.25
2019-03-22T22:39:32.368Z,97980.59
2019-03-22T22:44:26.972Z,97977.69
2019-03-22T22:49:21.655Z,97980.63
2019-03-22T22:54:16.322Z,97985.52
2019-03-22T22:59:10.902Z,97995.13
2019-03-22T23:04:05.576Z,97992.22
2019-03-22T23:09:00.169Z,97994.50
2019-03-22T23:13:54.761Z,97989.91
2019-03-22T23:18:49.370Z,98000.46
2019-03-22T23:23:43.963Z,97991.99
2019-03-22T23:28:38.555Z,97998.69
2019-03-22T23:33:33.167Z,97989.91
2019-03-22T23:38:27.775Z,97992.16
2019-03-22T23:43:22.381Z,97996.87
2019-03-22T23:48:16.976Z,97999.80
2019-03-22T23:53:11.590Z,97999.50
2019-03-22T23:58:06.246Z,98000.14
